Date,TemperatureHighF,TemperatureAvgF,TemperatureLowF,DewpointHighF,DewpointAvgF,DewpointLowF,HumidityHigh,HumidityAvg,HumidityLow,PressureMaxIn,PressureMinIn,WindSpeedMaxMPH,WindSpeedAvgMPH,GustSpeedMaxMPH,PrecipitationSumIn
2013-1-1,30,22,15,22,13,5,79,69,55,30.06,29.88,18,3,18,0.00
2013-1-2,27,22,19,22,17,14,88,79,74,30.20,29.98,15,2,15,0.00
2013-1-3,29,23,15,25,19,13,92,86,77,30.19,29.95,19,3,19,0.00
2013-1-4,31,29,27,25,22,21,82,76,71,30.01,29.86,28,6,28,0.00
2013-1-5,36,32,30,29,26,24,92,79,62,30.26,30.01,11,2,12,0.00
2013-1-6,36,33,25,32,30,21,92,88,85,30.14,29.85,21,3,21,0.00
2013-1-7,33,26,19,27,21,16,88,82,71,30.39,30.12,17,3,17,0.00
2013-1-8,37,32,30,31,27,25,92,82,71,30.29,30.12,12,2,14,0.00
2013-1-9,43,38,30,36,31,26,97,77,60,30.33,29.92,26,4,30,0.01
2013-1-10,42,37,35,32,28,25,83,70,58,30.58,30.33,17,2,19,0.00
2013-1-11,45,40,36,45,37,32,98,91,79,30.38,29.86,18,2,18,0.25
2013-1-12,56,46,43,50,45,42,98,95,83,29.93,29.86,11,1,11,0.01
2013-1-13,57,49,41,53,47,40,99,94,85,29.93,29.70,18,2,18,1.24
2013-1-14,41,31,26,40,25,18,96,77,65,30.38,29.79,23,4,24,0.12
2013-1-15,32,28,24,21,18,16,83,66,52,30.40,30.18,12,1,12,0.00
2013-1-16,37,31,24,26,22,18,82,70,54,30.17,29.74,17,2,18,0.00
2013-1-17,34,20,11,27,12,5,87,71,58,30.22,29.81,25,4,25,0.00
2013-1-18,31,19,9,24,12,6,92,73,56,30.43,29.98,18,3,18,0.00
2013-1-19,45,39,31,37,30,23,78,69,63,29.98,29.48,27,4,27,0.00
2013-1-20,45,26,16,35,19,9,94,74,59,30.07,29.38,28,7,28,0.00
2013-1-21,20,16,10,11,7,1,83,66,53,30.05,29.85,18,3,18,0.00
2013-1-22,10,7,3,4,0,-5,86,74,64,30.21,29.89,18,3,19,0.00
2013-1-23,14,5,-5,6,-2,-12,79,71,63,30.26,30.12,11,1,13,0.00
2013-1-24,11,7,3,5,0,-4,84,71,59,30.56,30.11,18,3,18,0.00
2013-1-25,17,12,5,14,8,-1,88,83,73,30.53,30.11,8,1,8,0.00
2013-1-26,26,19,12,17,12,8,88,77,57,30.42,30.11,9,1,9,0.00
2013-1-27,28,21,10,22,15,7,91,79,62,30.57,30.33,10,1,10,0.00
2013-1-28,36,32,28,36,30,21,98,93,75,30.33,29.83,10,1,12,0.26
2013-1-29,41,35,32,40,34,31,99,98,95,30.02,29.64,15,1,15,0.57
2013-1-30,56,51,40,54,49,40,99,93,85,29.64,28.95,17,2,18,0.12
2013-1-31,49,27,20,47,21,12,96,78,65,29.69,28.97,28,8,28,0.03
2013-2-1,20,16,12,14,8,4,83,71,54,30.17,29.69,20,4,21,0.00
2013-2-2,22,17,13,15,10,5,86,75,68,30.16,29.96,17,2,17,0.00
2013-2-3,23,17,9,14,9,4,91,72,46,29.99,29.81,12,1,12,0.00
2013-2-4,20,16,10,14,10,2,88,75,67,29.97,29.85,14,2,18,0.00
2013-2-5,24,16,8,16,9,2,83,72,60,29.97,29.84,10,1,10,0.00
2013-2-6,26,21,16,22,12,4,91,68,41,30.37,29.85,13,3,19,0.00
2013-2-7,27,19,17,22,16,9,92,85,68,30.39,30.12,22,4,22,0.00
2013-2-8,20,16,14,18,14,11,94,91,87,30.19,29.90,19,5,20,0.00
2013-2-9,26,16,8,15,10,4,86,77,58,30.43,30.20,15,2,15,0.00
2013-2-10,34,24,10,30,19,8,94,81,40,30.39,29.92,18,2,21,0.00
2013-2-11,44,36,32,41,32,28,97,86,65,29.93,29.52,24,4,30,0.29
2013-2-12,35,32,29,30,25,22,88,76,62,29.94,29.65,21,6,21,0.00
2013-2-13,34,29,24,24,21,19,81,72,60,29.88,29.74,9,1,9,0.00
2013-2-14,35,31,24,34,28,19,97,88,78,29.86,29.70,10,2,11,0.13
2013-2-15,35,29,19,33,22,13,95,76,54,30.07,29.68,21,4,24,0.00
2013-2-16,28,20,15,21,16,11,91,85,62,30.07,29.96,11,1,11,0.00
2013-2-17,17,10,3,11,3,-2,83,72,59,30.25,29.98,23,4,25,0.00
2013-2-18,32,19,4,26,12,0,90,75,56,30.27,29.86,16,2,16,0.00
2013-2-19,39,32,23,37,28,18,96,85,76,29.86,29.50,22,4,22,0.46
2013-2-20,23,20,18,20,13,11,88,74,63,30.08,29.71,20,6,22,0.00
2013-2-21,24,16,7,16,9,1,83,76,67,30.43,30.07,21,4,21,0.00
2013-2-22,33,26,14,32,23,10,97,89,83,30.40,29.95,25,4,25,0.00
2013-2-23,37,33,28,34,30,24,97,87,66,29.95,29.83,16,2,16,0.01
2013-2-24,34,30,27,30,27,25,94,85,79,30.09,29.83,14,2,14,0.00
2013-2-25,36,33,31,28,27,25,86,78,68,30.22,30.09,7,1,7,0.01
2013-2-26,38,34,30,32,29,26,96,81,69,30.21,29.77,25,4,26,0.05
2013-2-27,34,33,32,33,32,31,98,97,96,29.77,29.56,17,3,18,0.28
2013-2-28,37,33,30,34,31,26,98,93,81,29.78,29.51,22,2,22,0.84
2013-3-1,30,26,20,27,20,15,87,79,69,30.00,29.78,22,6,22,0.00
2013-3-2,26,21,15,19,15,10,82,77,71,30.00,29.93,18,4,19,0.00
2013-3-3,25,20,17,18,15,11,85,78,69,29.95,29.88,18,4,18,0.00
2013-3-4,30,23,17,21,16,13,86,76,62,30.09,29.94,14,3,17,0.00
2013-3-5,33,25,18,26,19,14,87,78,60,30.11,30.00,18,2,18,0.02
2013-3-6,41,34,27,32,28,23,88,78,64,30.17,29.99,12,2,15,0.05
2013-3-7,41,35,32,33,30,27,95,83,62,30.30,30.16,8,1,8,0.01
2013-3-8,42,36,31,33,30,28,94,80,58,30.41,30.30,14,2,14,0.09
2013-3-9,45,36,28,32,29,26,94,75,53,30.41,30.17,10,1,12,0.00
2013-3-10,56,45,35,37,33,28,87,65,44,30.18,29.92,9,1,12,0.00
2013-3-11,50,45,43,42,38,33,94,76,58,29.93,29.58,9,1,10,0.38
2013-3-12,44,38,33,42,33,28,94,84,75,29.86,29.62,15,3,16,0.00
2013-3-13,35,30,20,30,23,10,91,77,51,29.99,29.81,22,4,27,0.01
2013-3-14,32,24,16,14,10,-2,84,58,26,30.10,29.99,26,5,27,0.00
2013-3-15,40,32,24,29,21,13,83,67,48,30.05,29.72,23,4,23,0.00
2013-3-16,28,24,20,19,14,9,86,67,53,29.99,29.87,11,2,12,0.00
2013-3-17,28,23,19,16,11,6,81,61,43,30.35,29.99,15,2,15,0.00
2013-3-18,31,26,17,30,18,7,97,72,54,30.34,29.65,16,5,28,0.00
2013-3-19,35,30,24,34,26,18,98,86,71,29.80,29.58,19,4,20,0.12
2013-3-20,30,26,21,24,19,14,89,76,54,29.84,29.77,17,4,17,0.00
2013-3-21,31,24,18,26,19,14,91,79,68,29.81,29.69,17,3,17,0.00
2013-3-22,36,29,24,26,23,19,87,76,61,29.93,29.74,14,4,19,0.00
2013-3-23,38,32,28,26,24,21,89,72,49,30.03,29.91,18,3,18,0.00
2013-3-24,39,32,25,25,22,18,88,69,49,30.04,29.75,16,2,16,0.00
2013-3-25,43,37,31,28,25,23,75,62,50,29.75,29.64,20,3,20,0.00
2013-3-26,45,38,36,29,28,27,74,69,52,29.87,29.75,15,4,18,0.00
2013-3-27,43,37,33,33,29,25,90,75,57,30.07,29.91,15,4,18,0.01
2013-3-28,44,38,33,32,30,26,87,73,51,30.20,30.05,12,3,12,0.00
2013-3-29,53,42,35,31,27,20,79,57,35,30.20,30.11,16,2,16,0.00
2013-3-30,51,42,30,29,25,20,82,55,32,30.19,29.98,12,1,12,0.00
2013-3-31,53,44,36,41,32,26,90,62,43,29.99,29.56,14,2,14,0.09
2013-4-1,43,32,24,40,22,12,90,66,44,29.96,29.53,27,7,28,0.00
2013-4-2,34,27,22,23,17,12,80,65,43,30.12,29.95,25,6,25,0.00
2013-4-3,36,29,22,20,15,9,78,57,34,30.39,30.12,19,4,19,0.00
2013-4-4,49,37,26,24,18,8,73,50,24,30.35,29.88,15,3,15,0.00
2013-4-5,42,36,28,31,22,12,79,59,30,30.18,29.88,24,4,24,0.00
2013-4-6,41,33,22,26,21,16,81,63,39,30.31,29.96,16,2,16,0.00
2013-4-7,62,46,36,46,35,27,76,65,53,30.02,29.61,24,5,26,0.01
2013-4-8,47,42,39,40,34,31,96,76,58,30.08,29.76,21,3,21,0.73
2013-4-9,54,47,41,48,43,38,96,87,64,30.10,29.77,20,2,20,0.71
2013-4-10,46,42,39,45,40,36,96,93,89,30.08,29.88,15,2,16,0.73
2013-4-11,39,33,29,36,28,21,94,80,61,30.14,29.90,21,4,21,0.00
2013-4-12,42,36,31,40,34,26,97,92,77,29.94,29.54,25,5,25,0.13
2013-4-13,43,39,37,38,35,31,93,85,67,29.89,29.71,17,3,19,0.10
2013-4-14,46,39,32,32,29,27,84,68,50,30.16,29.89,15,3,15,0.00
2013-4-15,55,46,36,47,35,-100,80,68,55,30.13,29.97,21,3,21,0.00
2013-4-16,57,54,43,51,47,31,82,75,56,30.23,29.89,14,3,14,0.00
2013-4-17,54,45,36,35,32,29,79,61,46,30.35,30.22,15,2,15,0.03
2013-4-18,72,55,41,62,46,33,90,74,61,30.23,29.59,23,4,23,0.23
2013-4-19,66,55,42,59,47,29,93,77,54,29.66,29.28,27,5,28,0.15
2013-4-20,42,35,30,32,24,17,93,66,52,30.41,29.65,25,6,25,0.00
2013-4-21,43,35,27,27,22,19,79,62,45,30.67,30.41,13,2,14,0.00
2013-4-22,53,44,32,33,29,24,82,59,39,30.59,30.29,16,3,16,0.00
2013-4-23,53,46,37,39,34,31,83,63,49,30.29,29.86,17,2,17,0.00
2013-4-24,55,46,36,50,40,31,95,79,60,29.99,29.61,19,3,19,0.72
2013-4-25,50,41,33,38,34,30,91,76,47,30.28,29.99,19,3,19,0.01
2013-4-26,54,45,32,36,31,24,90,60,38,30.46,30.28,11,2,12,0.00
2013-4-27,64,51,42,42,33,26,62,49,40,30.40,30.19,13,2,15,0.00
2013-4-28,68,55,46,49,42,32,94,63,42,30.19,29.96,17,3,23,0.19
2013-4-29,55,51,46,52,49,46,97,94,82,30.00,29.91,9,2,10,0.24
2013-4-30,69,58,50,58,53,49,96,82,63,30.14,30.00,17,2,17,0.01
2013-5-1,74,64,54,55,49,35,84,61,35,30.30,30.15,12,2,14,0.00
2013-5-2,73,64,50,43,38,30,70,40,22,30.36,30.22,12,2,13,0.00
2013-5-3,74,63,50,45,41,36,67,45,27,30.25,30.18,16,2,16,0.00
2013-5-4,71,62,48,46,39,25,81,46,19,30.23,30.13,14,1,14,0.00
2013-5-5,76,65,49,47,41,36,75,44,25,30.17,30.05,14,1,14,0.00
2013-5-6,74,63,49,44,33,14,74,37,12,30.11,30.00,10,1,10,0.00
2013-5-7,77,65,48,44,36,29,69,38,17,30.09,29.99,14,1,14,0.00
2013-5-8,72,63,56,57,50,40,88,64,50,30.01,29.92,14,2,14,0.00
2013-5-9,78,66,59,59,54,45,89,69,35,29.92,29.85,9,1,9,0.00
2013-5-10,60,55,50,56,51,44,97,88,57,29.90,29.65,19,2,19,0.60
2013-5-11,58,51,44,52,45,41,97,82,61,29.77,29.65,14,-1,15,0.00
2013-5-12,50,41,36,46,33,28,89,73,50,29.93,29.67,28,6,28,0.04
2013-5-13,51,42,34,32,28,18,84,59,31,30.15,29.93,20,4,20,0.00
2013-5-14,54,46,37,35,32,27,81,58,39,30.15,29.93,12,2,12,0.00
2013-5-15,77,59,43,57,44,35,93,63,32,29.93,29.52,25,4,28,0.09
2013-5-16,73,61,51,44,40,31,63,47,22,30.04,29.71,24,4,24,0.00
2013-5-17,65,55,44,44,40,36,82,58,37,30.23,30.04,9,1,9,0.00
2013-5-18,67,58,45,44,39,35,86,53,34,30.27,30.14,16,2,18,0.00
2013-5-19,75,63,53,61,52,36,88,68,40,30.14,29.97,13,2,13,0.00
2013-5-20,82,69,58,66,61,56,94,77,57,30.02,29.85,16,2,16,0.21
2013-5-21,78,66,59,69,62,58,97,88,71,29.88,29.73,15,1,17,0.17
2013-5-22,81,66,57,68,61,56,98,86,56,29.78,29.61,12,1,13,0.28
2013-5-23,73,59,39,61,53,37,93,81,59,29.99,29.65,22,4,22,0.09
2013-5-24,52,44,38,37,34,32,93,70,52,30.28,29.99,22,5,22,0.03
2013-5-25,57,49,38,38,35,32,86,60,45,30.31,30.23,21,4,21,0.00
2013-5-26,62,53,42,37,34,29,78,51,30,30.27,30.21,18,3,18,0.00
2013-5-27,70,59,42,41,36,29,76,45,22,30.28,30.12,11,1,11,0.00
2013-5-28,57,54,50,56,47,35,98,81,47,30.14,29.91,11,2,11,0.65
2013-5-29,81,70,56,70,64,55,99,85,60,29.98,29.78,16,2,18,2.82
2013-5-30,87,77,66,69,66,64,95,72,49,30.07,29.98,13,1,17,0.00
2013-5-31,86,76,69,69,66,63,88,71,53,30.01,29.89,20,2,20,0.07
2013-6-1,81,71,64,70,66,62,95,84,66,29.89,29.72,16,2,17,0.11
2013-6-2,75,65,50,67,60,43,98,85,63,29.91,29.63,28,3,28,0.50
2013-6-3,64,54,45,43,41,38,88,63,40,30.05,29.91,16,3,16,0.00
2013-6-4,69,58,46,43,38,28,76,50,24,30.19,30.05,16,2,16,0.00
2013-6-5,63,59,54,43,40,33,63,50,41,30.25,30.09,15,2,15,0.00
2013-6-6,60,55,53,53,47,40,97,75,52,30.11,29.87,27,4,29,0.56
2013-6-7,61,57,53,56,54,52,98,91,81,29.90,29.85,11,1,11,0.01
2013-6-8,69,61,57,58,55,50,91,80,64,30.07,29.85,9,1,9,0.00
2013-6-9,75,65,52,54,50,46,93,62,41,30.19,30.07,11,1,11,0.00
2013-6-10,62,60,58,60,56,49,99,87,65,30.12,29.71,17,3,18,1.49
2013-6-11,74,66,60,62,60,56,99,83,57,29.86,29.66,17,2,17,0.54
2013-6-12,75,66,56,60,55,50,96,69,45,29.93,29.75,11,1,11,0.00
2013-6-13,72,62,59,61,57,51,97,83,58,29.81,29.59,16,1,16,0.76
2013-6-14,74,64,58,60,55,44,98,75,52,30.01,29.80,9,3,14,0.00
2013-6-15,77,65,51,58,47,41,79,54,32,30.06,29.93,12,2,12,0.00
2013-6-16,78,69,61,66,60,49,98,75,54,29.93,29.69,14,2,16,0.54
2013-6-17,76,69,61,63,58,53,90,69,55,29.94,29.79,13,2,13,0.00
2013-6-18,71,63,53,55,50,42,95,67,36,30.06,29.91,15,2,15,0.16
2013-6-19,69,61,53,47,43,39,75,52,38,30.20,30.06,13,1,13,0.00
2013-6-20,76,64,48,51,48,45,91,59,36,30.26,30.19,11,1,11,0.00
2013-6-21,80,69,54,56,51,48,89,56,34,30.26,30.15,12,1,12,0.00
2013-6-22,80,71,62,73,64,51,95,79,56,30.16,29.98,6,0,6,0.54
2013-6-23,91,79,66,75,69,65,97,74,45,30.04,29.93,15,2,15,0.00
2013-6-24,90,82,74,73,69,65,82,65,45,29.99,29.86,15,2,16,0.00
2013-6-25,83,76,71,72,69,67,93,78,63,29.90,29.75,14,2,14,0.28
2013-6-26,86,77,69,70,68,64,93,76,50,29.79,29.74,10,1,12,0.00
2013-6-27,77,72,66,69,66,62,91,81,73,29.78,29.64,6,0,6,0.00
2013-6-28,69,66,63,66,64,61,97,94,88,29.65,29.51,9,0,9,0.84
2013-6-29,76,67,61,65,61,58,97,84,61,29.71,29.51,16,1,16,0.00
2013-6-30,78,69,59,63,59,53,93,72,51,29.95,29.70,12,1,13,0.00
2013-7-1,76,68,62,54,51,48,64,56,44,30.09,29.94,19,3,22,0.00
2013-7-2,76,68,62,62,57,50,89,69,58,30.10,30.04,13,2,15,0.00
2013-7-3,85,72,63,71,66,61,94,83,60,30.15,30.07,11,1,11,0.00
2013-7-4,82,74,68,72,69,67,97,85,66,30.15,30.07,11,1,13,0.10
2013-7-5,77,73,70,73,69,67,97,89,77,30.11,30.03,9,0,18,1.50
2013-7-6,84,76,67,72,68,62,95,77,49,30.12,29.99,9,1,10,0.00
2013-7-7,81,73,70,73,70,68,97,91,71,30.02,29.91,10,1,10,2.16
2013-7-8,86,75,67,73,69,66,97,83,60,30.02,29.95,14,1,16,2.02
2013-7-9,78,72,68,72,70,67,98,93,83,30.01,29.87,9,1,9,0.03
2013-7-10,88,77,66,74,69,56,98,79,52,29.87,29.68,17,2,17,0.00
2013-7-11,78,69,60,62,58,54,83,69,54,30.04,29.83,16,3,16,0.00
2013-7-12,77,70,60,63,59,56,89,71,58,30.18,30.04,14,2,14,0.00
2013-7-13,82,72,59,65,61,56,93,69,48,30.25,30.17,13,1,13,0.00
2013-7-14,88,78,65,72,68,63,95,73,53,30.29,30.22,9,0,9,0.00
2013-7-15,92,82,70,70,68,63,89,64,38,30.29,30.21,10,1,10,0.00
2013-7-16,93,84,74,73,69,63,81,62,40,30.27,30.17,9,1,9,0.00
2013-7-17,95,86,77,78,73,71,83,66,49,30.19,30.04,16,2,18,0.00
2013-7-18,93,85,77,76,72,69,86,66,49,30.07,29.88,14,1,14,0.00
2013-7-19,94,82,70,76,72,67,95,74,44,29.88,29.64,24,3,24,0.73
2013-7-20,84,76,70,70,62,56,94,66,39,29.89,29.64,15,2,15,0.29
2013-7-21,75,68,61,60,56,52,87,66,52,30.03,29.89,12,2,13,0.00
2013-7-22,75,68,58,65,59,50,96,76,49,30.00,29.77,13,2,13,0.00
2013-7-23,82,70,60,70,62,54,93,76,61,29.77,29.58,18,2,18,0.19
2013-7-24,72,63,55,56,49,45,83,63,44,30.04,29.71,19,3,19,0.00
2013-7-25,75,66,54,56,51,47,88,62,41,30.13,30.05,12,1,13,0.00
2013-7-26,75,66,54,59,54,47,95,67,40,30.12,29.98,12,1,13,0.00
2013-7-27,72,66,62,67,63,57,97,88,80,29.99,29.76,10,1,10,0.42
2013-7-28,72,66,59,66,55,48,97,71,44,29.95,29.74,17,2,17,0.00
2013-7-29,71,63,57,59,56,52,89,78,59,30.13,29.94,13,2,13,0.00
2013-7-30,77,66,56,60,57,54,92,74,51,30.20,30.13,9,1,10,0.00
2013-7-31,77,66,56,64,59,54,95,79,52,30.15,29.92,7,0,8,0.57
2013-8-1,79,68,60,65,60,53,98,76,48,29.92,29.77,15,2,15,1.49
2013-8-2,78,67,57,62,58,54,92,74,45,29.87,29.78,5,1,14,0.00
2013-8-3,77,68,60,59,55,51,88,67,42,29.95,29.82,6,3,15,0.00
2013-8-4,72,64,57,56,52,45,88,67,42,30.09,29.94,7,3,20,0.00
2013-8-5,74,65,54,55,51,49,87,64,42,30.11,30.00,4,1,8,0.00
2013-8-6,76,68,60,62,58,53,87,70,53,30.03,29.95,5,2,11,0.00
2013-8-7,80,72,64,70,66,61,96,83,69,29.96,29.80,10,1,11,0.13
2013-8-8,82,74,68,68,65,59,89,73,59,29.95,29.87,10,1,10,0.00
2013-8-9,81,72,65,62,57,52,76,60,41,29.93,29.85,12,2,13,0.00
2013-8-10,74,66,58,58,52,48,76,60,42,30.09,29.92,11,2,11,0.00
2013-8-11,76,66,54,59,53,48,85,65,46,30.13,30.01,8,1,8,0.00
2013-8-12,75,67,56,65,59,52,90,76,58,30.05,29.83,10,1,15,0.01
2013-8-13,69,64,54,63,55,48,95,75,51,29.89,29.75,20,3,21,0.00
2013-8-14,71,62,53,52,49,43,87,64,38,30.09,29.86,20,4,20,0.00
2013-8-15,75,64,53,55,50,47,81,60,42,30.12,30.05,14,2,14,0.00
2013-8-16,78,67,53,60,54,49,89,67,44,30.20,30.10,10,1,10,0.00
2013-8-17,81,69,56,62,54,45,88,61,31,30.28,30.20,12,1,12,0.00
2013-8-18,80,70,57,64,58,55,95,69,43,30.24,30.10,11,1,11,0.00
2013-8-19,84,73,60,63,58,54,88,62,39,30.11,30.00,11,1,11,0.00
2013-8-20,85,76,65,65,61,57,85,63,44,30.09,30.03,13,2,14,0.00
2013-8-21,88,78,69,69,65,62,82,66,43,30.12,29.97,13,1,14,0.00
2013-8-22,83,76,68,69,62,51,80,64,36,30.00,29.90,20,3,20,0.00
2013-8-23,78,69,60,57,54,48,82,61,37,30.20,30.00,13,2,13,0.00
2013-8-24,76,67,55,61,55,51,95,69,46,30.35,30.20,11,1,12,0.00
2013-8-25,82,70,56,67,59,54,95,71,48,30.33,30.07,13,1,13,0.09
2013-8-26,78,71,68,72,68,64,96,90,74,30.09,29.91,10,1,14,1.25
2013-8-27,84,74,66,72,69,65,98,86,66,29.93,29.84,7,0,7,0.08
2013-8-28,83,75,70,73,70,68,98,85,63,29.96,29.83,14,1,15,0.00
2013-8-29,87,77,68,72,69,65,96,77,60,30.04,29.96,9,0,9,0.00
2013-8-30,84,76,67,71,68,65,96,79,58,29.98,29.69,11,1,12,0.06
2013-8-31,78,73,69,70,69,67,95,86,75,29.84,29.69,9,1,10,0.00
2013-9-1,77,70,66,68,66,65,98,87,71,29.85,29.75,13,2,14,0.02
2013-9-2,78,69,61,71,64,55,97,85,63,29.78,29.68,16,2,17,0.00
2013-9-3,72,64,59,59,55,50,86,73,56,29.94,29.78,14,3,14,0.00
2013-9-4,79,66,56,63,56,50,89,73,51,30.01,29.93,14,3,16,0.00
2013-9-5,63,58,48,54,44,36,86,63,38,30.26,30.00,17,3,17,0.00
2013-9-6,72,58,44,57,46,40,87,66,39,30.30,30.08,8,1,8,0.00
2013-9-7,68,63,59,66,59,48,96,85,59,30.08,29.87,11,1,11,0.85
2013-9-8,68,63,54,66,52,43,96,70,43,30.11,29.86,16,2,16,0.00
2013-9-9,71,60,49,59,52,46,97,78,45,30.14,29.93,7,1,7,0.00
2013-9-10,95,79,62,76,69,59,98,75,44,29.96,29.86,16,2,16,0.02
2013-9-11,92,81,72,73,70,67,93,69,50,29.97,29.86,14,2,14,0.15
2013-9-12,75,69,60,69,63,55,96,83,56,29.90,29.73,15,2,16,0.36
2013-9-13,60,53,50,55,45,40,85,76,69,30.08,29.79,16,3,17,0.00
2013-9-14,63,53,41,48,42,34,89,66,37,30.16,30.06,10,1,10,0.00
2013-9-15,67,59,51,54,50,47,86,74,52,30.13,30.04,13,1,13,0.12
2013-9-16,58,52,44,53,45,40,93,78,53,30.40,30.06,15,2,16,0.00
2013-9-17,61,50,39,48,43,36,95,77,58,30.49,30.29,10,1,10,0.00
2013-9-18,71,57,42,55,48,42,98,76,43,30.30,30.10,9,1,9,0.00
2013-9-19,72,60,49,64,57,48,98,89,72,30.11,30.00,10,1,10,0.00
2013-9-20,74,68,60,68,64,59,98,90,79,30.01,29.71,11,1,14,0.38
2013-9-21,68,60,50,67,59,46,98,94,83,29.74,29.61,17,1,17,1.35
2013-9-22,55,50,46,47,43,39,93,77,60,30.07,29.74,15,2,15,0.00
2013-9-23,61,52,43,44,42,38,92,71,46,30.18,30.07,10,1,10,0.00
2013-9-24,68,53,41,51,44,40,96,74,45,30.19,30.03,9,1,9,0.00
2013-9-25,72,58,44,52,47,42,96,71,39,30.04,29.96,8,0,8,0.00
2013-9-26,72,60,46,53,49,45,95,71,46,30.17,30.01,10,1,10,0.00
2013-9-27,67,58,49,55,52,48,98,81,62,30.28,30.16,14,1,15,0.00
2013-9-28,68,58,48,58,55,47,98,88,71,30.30,30.13,13,2,15,0.00
2013-9-29,70,62,52,61,57,51,97,85,67,30.13,29.99,12,1,13,0.03
2013-9-30,67,64,61,64,62,58,97,93,89,29.99,29.92,12,1,13,0.11
2013-10-1,75,63,51,63,58,50,99,85,61,30.02,29.88,14,2,14,0.00
2013-10-2,77,70,62,62,55,40,90,64,29,30.02,29.89,14,3,15,0.00
2013-10-3,57,52,47,45,42,41,86,71,59,30.12,30.08,2,0,5,0.00
2013-10-4,63,60,59,60,58,55,97,91,74,30.08,29.98,4,2,14,1.51
2013-10-5,62,59,55,56,53,51,92,80,69,30.12,30.03,15,2,16,0.02
2013-10-6,65,60,56,65,58,50,99,92,72,30.03,29.65,17,3,17,0.05
2013-10-7,66,57,50,65,52,43,99,84,54,30.05,29.61,15,3,24,0.43
2013-10-8,63,53,43,49,46,42,96,78,54,30.34,30.05,10,1,10,0.00
2013-10-9,65,53,42,52,47,42,99,82,51,30.40,30.29,9,1,9,0.00
2013-10-10,67,55,46,56,48,44,99,82,49,30.29,30.18,9,1,9,0.01
2013-10-11,69,54,42,49,44,39,94,71,41,30.21,30.14,9,1,11,0.00
2013-10-12,68,56,43,57,49,41,95,78,51,30.20,30.14,14,1,14,0.00
2013-10-13,60,58,53,59,56,50,98,92,81,30.29,30.15,11,0,11,0.64
2013-10-14,64,54,46,52,48,44,96,82,58,30.36,30.28,10,1,10,0.00
2013-10-15,63,54,42,58,50,41,98,88,69,30.32,29.91,13,2,13,0.01
2013-10-16,68,62,54,64,58,48,97,86,63,29.92,29.70,16,2,16,0.35
2013-10-17,61,55,52,53,50,48,95,83,66,29.86,29.69,8,1,9,0.43
2013-10-18,59,52,47,50,44,39,95,76,50,29.88,29.70,20,3,20,0.02
2013-10-19,52,47,41,46,43,38,94,88,72,29.86,29.66,13,1,13,0.38
2013-10-20,56,46,38,43,38,33,95,78,42,29.97,29.75,18,2,18,0.00
2013-10-21,60,53,45,51,47,39,96,82,69,29.94,29.75,17,3,17,0.41
2013-10-22,49,43,40,47,35,28,94,72,56,29.84,29.75,21,4,22,0.01
2013-10-23,48,41,36,37,33,26,89,75,46,29.82,29.73,14,2,16,0.00
2013-10-24,47,40,34,37,34,31,90,80,59,30.05,29.79,19,3,19,0.00
2013-10-25,48,41,35,38,35,32,93,80,57,30.20,30.05,13,2,13,0.02
2013-10-26,44,41,39,38,36,29,93,81,58,30.09,29.73,23,5,23,0.57
2013-10-27,46,41,35,37,34,32,92,79,64,30.04,29.81,15,2,15,0.00
2013-10-28,46,42,31,38,29,20,82,62,38,30.43,30.00,12,2,15,0.00
2013-10-29,44,36,27,33,27,22,85,70,51,30.51,30.32,9,1,9,0.00
2013-10-30,52,43,38,43,39,34,95,85,67,30.32,30.09,8,1,8,0.02
2013-10-31,62,52,42,58,51,41,99,95,83,30.09,29.27,19,2,21,0.72
2013-11-1,59,54,48,57,48,43,98,81,69,29.63,29.06,31,6,33,0.17
2013-11-2,48,43,35,44,39,28,93,87,74,30.07,29.59,14,2,14,0.10
2013-11-3,40,32,26,28,21,9,87,66,31,30.57,30.07,12,1,12,0.00
2013-11-4,41,34,24,29,25,21,90,71,53,30.67,30.44,16,2,17,0.00
2013-11-5,55,46,35,42,37,28,85,73,60,30.45,30.30,15,1,15,0.00
2013-11-6,58,53,48,55,46,38,94,77,66,30.30,29.75,18,3,20,0.19
2013-11-7,52,42,36,47,35,30,88,78,60,30.00,29.80,21,4,21,0.02
2013-11-8,42,38,32,33,29,24,87,73,51,30.24,29.98,20,3,20,0.00
2013-11-9,50,43,37,43,36,29,90,75,67,30.23,29.76,20,2,20,0.03
2013-11-10,48,42,37,41,35,31,86,77,66,30.18,29.76,24,6,26,0.01
2013-11-11,43,36,28,37,30,19,91,78,60,30.18,29.92,25,3,25,0.04
2013-11-12,32,27,23,24,18,12,84,69,49,30.45,30.18,22,3,24,0.00
2013-11-13,38,31,20,24,20,17,87,67,48,30.46,30.05,21,4,22,0.00
2013-11-14,51,41,32,32,26,20,64,55,45,30.09,29.97,22,6,22,0.00
2013-11-15,53,46,41,38,30,26,66,55,43,30.10,30.00,18,3,18,0.00
2013-11-16,54,48,40,43,38,33,78,71,65,30.21,29.97,12,1,12,0.00
2013-11-17,60,54,49,56,51,43,95,87,71,29.97,29.24,25,3,25,0.85
2013-11-18,55,43,35,49,34,27,85,71,58,29.93,29.24,31,9,35,0.00
2013-11-19,36,33,28,30,24,22,83,71,60,30.46,29.93,22,4,22,0.00
2013-11-20,35,31,22,30,26,18,84,80,74,30.61,30.46,17,3,22,0.00
2013-11-21,44,40,33,40,33,26,94,78,62,30.48,30.27,11,2,11,0.00
2013-11-22,41,41,41,40,40,40,94,94,94,30.27,30.27,1,1,0,0.00
2013-11-23,41,26,12,40,20,6,94,77,56,30.30,30.07,22,4,23,0.00
2013-11-24,22,17,9,13,9,4,86,73,64,30.46,30.30,16,3,17,0.00
2013-11-25,34,28,22,27,18,8,86,65,44,30.43,30.07,21,5,23,0.00
2013-11-26,34,32,30,32,29,26,96,87,80,30.14,29.86,8,3,8,0.00
2013-11-27,32,28,18,32,24,12,96,85,72,29.99,29.72,24,4,25,0.00
2013-11-28,26,21,17,17,14,11,82,73,55,30.47,30.00,14,2,15,0.00
2013-11-29,29,22,14,19,14,6,87,72,59,30.75,30.47,6,0,6,0.00
2013-11-30,35,30,20,30,23,14,87,74,59,30.73,30.16,16,2,16,0.00
2013-12-1,39,37,35,36,34,29,94,88,78,30.16,29.95,9,0,9,0.17
2013-12-2,36,35,32,35,32,27,96,87,77,29.95,29.88,10,1,11,0.00
2013-12-3,38,32,25,29,25,22,93,75,56,30.03,29.94,9,0,9,0.00
2013-12-4,38,35,32,36,33,29,95,91,82,30.07,29.85,17,3,17,0.06
2013-12-5,60,45,37,52,40,28,96,81,56,30.04,29.69,22,4,22,0.00
2013-12-6,37,32,28,28,22,18,73,67,62,30.29,30.01,14,3,15,0.00
2013-12-7,28,26,21,19,15,11,74,64,50,30.59,30.28,16,4,20,0.00
2013-12-8,30,24,18,22,15,11,77,69,53,30.60,30.20,17,2,19,0.00
2013-12-9,34,30,26,32,26,17,96,84,68,30.19,29.84,26,5,26,0.00
2013-12-10,26,20,16,17,10,6,82,68,58,30.06,29.94,20,5,22,0.00
2013-12-11,23,19,13,15,11,7,81,70,54,30.33,30.06,23,6,23,0.00
2013-12-12,18,14,10,12,8,5,87,74,60,30.35,30.06,22,4,23,0.00
2013-12-13,22,15,8,19,8,-1,89,72,58,30.46,30.03,22,4,23,0.00
2013-12-14,12,8,4,9,3,-3,90,80,59,30.49,29.84,24,6,24,0.00
2013-12-15,24,15,8,20,11,5,90,85,78,29.92,29.74,20,3,21,0.00
2013-12-16,18,10,2,11,4,-1,89,78,60,30.22,29.92,13,1,13,0.00
2013-12-17,25,18,6,22,15,4,91,88,80,30.18,29.93,11,1,12,0.00
2013-12-18,31,27,24,25,22,21,90,83,74,30.06,29.95,17,3,17,0.00
2013-12-19,36,32,28,31,26,22,89,80,73,30.05,29.87,16,2,16,0.02
2013-12-20,33,32,30,32,31,29,97,96,90,30.02,29.80,9,1,9,0.39
2013-12-21,32,31,30,31,30,28,97,96,95,29.94,29.75,5,0,9,0.00
2013-12-22,30,30,29,29,28,28,96,96,95,29.87,29.73,0,0,0,0.00
2013-12-23,34,26,17,31,23,14,94,89,82,30.30,29.95,0,0,0,0.00
2013-12-24,17,11,3,14,7,0,91,84,78,30.57,30.27,0,0,0,0.00
2013-12-25,25,12,0,21,10,-3,92,88,84,30.58,30.20,0,0,0,0.00
2013-12-26,30,25,21,26,22,17,94,88,81,30.28,30.08,0,0,0,0.00
2013-12-27,32,26,21,29,23,18,92,86,77,30.28,30.05,0,0,0,0.00
2013-12-28,37,35,31,33,32,29,95,88,85,30.09,29.92,16,2,16,0.00
2013-12-29,41,35,20,34,30,13,96,81,68,29.92,29.62,20,2,21,0.02
2013-12-30,20,14,11,13,4,-7,84,66,36,30.27,29.83,24,3,24,0.00
2013-12-31,19,16,12,16,10,5,90,79,64,30.27,30.01,27,4,27,0.00
2014-1-1,14,10,4,8,1,-10,80,69,52,30.46,30.27,13,3,16,0.00
2014-1-2,4,0,-4,-4,-8,-13,79,71,56,30.41,30.15,19,4,19,0.00